Time;durP1;ratioP1;P1;durP2;ratioP2;P2;SDS_P1;SDS_P2;PMS_P1;PMS_P2;Temp;Humidity;BMP_temperature;BMP_pressure;BME280_temperature;BME280_humidity;BME280_pressure;Samples;Min_cycle;Max_cycle;Signal;HPM_P1;HPM_P2
2023/07/21 00:01:46;;;;;;;9.10;3.90;;;;;;;18.19;100.00;100049.08;1451457;89;22338;-77
2023/07/21 00:04:13;;;;;;;7.70;3.70;;;;;;;18.13;100.00;100050.73;1434222;89;21930;-74
2023/07/21 00:06:42;;;;;;;6.13;3.63;;;;;;;18.03;100.00;100048.45;1452253;89;21466;-75
2023/07/21 00:09:07;;;;;;;5.83;3.27;;;;;;;17.91;100.00;100048.75;1530236;89;21384;-75
2023/07/21 00:11:33;;;;;;;9.17;3.43;;;;;;;17.78;100.00;100047.39;1530538;88;21392;-75
2023/07/21 00:14:00;;;;;;;6.70;3.97;;;;;;;17.72;100.00;100044.16;1422598;89;21340;-75
2023/07/21 00:16:29;;;;;;;7.23;3.73;;;;;;;17.67;100.00;100045.31;1468850;89;21383;-76
2023/07/21 00:18:55;;;;;;;8.37;4.33;;;;;;;17.62;100.00;100049.09;1433871;90;22395;-77
2023/07/21 00:21:22;;;;;;;8.40;3.80;;;;;;;17.59;100.00;100054.34;1430321;91;21451;-76
2023/07/21 00:23:48;;;;;;;4.13;3.23;;;;;;;17.55;100.00;100051.73;1429048;90;21562;-77
2023/07/21 00:26:15;;;;;;;6.63;3.27;;;;;;;17.51;100.00;100049.99;1456452;89;21473;-76
2023/07/21 00:28:43;;;;;;;6.17;3.20;;;;;;;17.51;100.00;100052.66;1468852;89;21377;-76
2023/07/21 00:31:10;;;;;;;5.03;2.93;;;;;;;17.53;100.00;100053.81;1464525;89;21613;-76
2023/07/21 00:33:37;;;;;;;4.63;2.40;;;;;;;17.54;100.00;100051.44;1462811;89;21340;-76
2023/07/21 00:36:05;;;;;;;9.43;4.00;;;;;;;17.57;100.00;100053.70;1457080;89;21399;-76
2023/07/21 00:38:32;;;;;;;8.30;3.40;;;;;;;17.58;100.00;100052.70;1467257;89;21384;-76
2023/07/21 00:40:59;;;;;;;7.30;3.37;;;;;;;17.55;100.00;100050.41;1466375;89;21612;-76
2023/07/21 00:43:25;;;;;;;8.90;3.30;;;;;;;17.53;100.00;100055.97;1471339;89;21421;-76
2023/07/21 00:45:51;;;;;;;6.80;3.17;;;;;;;17.49;100.00;100053.41;1460670;89;22412;-76
2023/07/21 00:48:18;;;;;;;5.53;3.80;;;;;;;17.44;100.00;100058.52;1464528;89;21384;-76
2023/07/21 00:50:51;;;;;;;3.87;2.93;;;;;;;17.42;100.00;100060.57;1472810;89;21835;-76
2023/07/21 00:53:19;;;;;;;3.57;2.80;;;;;;;17.40;100.00;100057.26;1464646;89;21318;-76
2023/07/21 00:55:47;;;;;;;4.50;3.10;;;;;;;17.36;100.00;100053.35;1472727;89;22308;-76
2023/07/21 00:58:19;;;;;;;9.00;3.60;;;;;;;17.32;100.00;100057.44;1463363;89;21376;-76
2023/07/21 01:00:46;;;;;;;4.97;3.33;;;;;;;17.29;100.00;100053.83;1445281;90;21547;-76
2023/07/21 01:03:18;;;;;;;7.73;2.77;;;;;;;17.22;100.00;100061.02;1433665;91;22487;-76
2023/07/21 01:05:51;;;;;;;4.83;3.20;;;;;;;17.14;100.00;100056.66;1433120;90;21437;-75
2023/07/21 01:08:19;;;;;;;9.17;3.40;;;;;;;17.09;100.00;100055.94;1424065;91;21623;-76
2023/07/21 01:10:48;;;;;;;5.83;3.27;;;;;;;17.06;100.00;100057.67;1429098;90;21458;-75
2023/07/21 01:13:17;;;;;;;6.93;3.30;;;;;;;17.07;100.00;100057.16;1468592;88;22309;-75
2023/07/21 01:15:48;;;;;;;5.90;2.57;;;;;;;17.08;100.00;100047.58;1461804;88;21539;-76
2023/07/21 01:18:17;;;;;;;6.73;3.50;;;;;;;17.09;100.00;100048.40;1470319;88;21510;-76
2023/07/21 01:20:45;;;;;;;8.43;3.60;;;;;;;17.10;100.00;100047.39;1466472;88;22336;-76
2023/07/21 01:23:41;;;;;;;3.53;2.77;;;;;;;17.09;100.00;100046.58;1474680;88;21361;-76
2023/07/21 01:26:11;;;;;;;6.93;3.40;;;;;;;17.08;100.00;100050.25;1474066;88;21451;-76
2023/07/21 01:28:40;;;;;;;5.93;2.57;;;;;;;17.04;100.00;100051.69;1465891;88;21370;-76
2023/07/21 01:31:08;;;;;;;4.30;2.93;;;;;;;16.99;100.00;100060.81;1467295;88;21384;-76
2023/07/21 01:33:35;;;;;;;5.17;2.83;;;;;;;16.97;100.00;100063.36;1469466;88;21546;-76
2023/07/21 01:36:03;;;;;;;7.57;3.27;;;;;;;16.94;100.00;100063.24;1467376;88;21450;-75
2023/07/21 01:38:30;;;;;;;10.53;2.67;;;;;;;16.98;100.00;100059.17;1474944;88;21324;-75
2023/07/21 01:40:58;;;;;;;5.43;2.97;;;;;;;16.99;100.00;100056.80;1474277;88;21354;-75
2023/07/21 01:43:24;;;;;;;7.17;3.10;;;;;;;16.98;100.00;100052.48;1464839;88;22329;-75
2023/07/21 01:45:50;;;;;;;10.13;3.10;;;;;;;16.98;100.00;100060.50;1467991;88;21563;-76
2023/07/21 01:48:17;;;;;;;6.17;2.87;;;;;;;16.97;100.00;100058.84;1476432;88;21399;-77
2023/07/21 01:50:44;;;;;;;8.10;3.00;;;;;;;16.97;100.00;100063.36;1467391;88;21340;-76
2023/07/21 01:53:18;;;;;;;5.03;2.87;;;;;;;16.95;100.00;100067.59;1462264;88;21413;-76
2023/07/21 01:55:49;;;;;;;5.43;2.77;;;;;;;16.94;100.00;100068.59;1469606;88;21428;-76
2023/07/21 01:58:18;;;;;;;4.30;2.50;;;;;;;16.96;100.00;100067.06;1473625;88;21577;-76
2023/07/21 02:00:45;;;;;;;15.53;3.70;;;;;;;16.97;100.00;100063.36;1443573;88;21523;-76
2023/07/21 02:03:12;;;;;;;5.57;2.70;;;;;;;16.96;100.00;100061.20;1472485;88;21369;-77
2023/07/21 02:05:38;;;;;;;13.23;4.90;;;;;;;16.93;100.00;100065.61;1472703;88;22366;-76
2023/07/21 02:08:05;;;;;;;5.70;2.63;;;;;;;16.90;100.00;100069.50;1479361;88;21591;-76
2023/07/21 02:10:31;;;;;;;7.37;3.00;;;;;;;16.84;100.00;100069.48;1466914;88;21280;-76
2023/07/21 02:12:58;;;;;;;8.17;3.00;;;;;;;16.75;100.00;100075.97;1458733;89;21907;-76
2023/07/21 02:15:24;;;;;;;6.10;2.77;;;;;;;16.67;100.00;100071.08;1454163;89;21318;-76
2023/07/21 02:17:51;;;;;;;4.47;3.27;;;;;;;16.62;100.00;100074.84;1454162;89;21480;-77
2023/07/21 02:20:18;;;;;;;3.53;2.50;;;;;;;16.60;100.00;100070.72;1461843;89;22103;-76
2023/07/21 02:22:45;;;;;;;4.63;2.20;;;;;;;16.61;100.00;100077.22;1453437;89;21361;-76
2023/07/21 02:25:13;;;;;;;4.80;2.87;;;;;;;16.60;100.00;100084.92;1457893;89;22278;-76
2023/07/21 02:27:39;;;;;;;7.20;2.80;;;;;;;16.57;100.00;100088.48;1456033;89;22442;-76
2023/07/21 02:30:07;;;;;;;7.80;2.83;;;;;;;16.53;100.00;100088.05;1442860;89;21399;-76
2023/07/21 02:32:34;;;;;;;4.87;2.43;;;;;;;16.48;100.00;100086.46;1458878;89;21384;-76
2023/07/21 02:35:00;;;;;;;7.03;2.90;;;;;;;16.44;100.00;100085.21;1451029;89;21362;-76
2023/07/21 02:41:30;;;;;;;3.60;1.87;;;;;;;16.36;100.00;100072.00;1456351;89;22183;-76
2023/07/21 02:43:56;;;;;;;4.00;2.70;;;;;;;16.31;100.00;100090.44;1451337;89;21451;-76
2023/07/21 02:46:23;;;;;;;8.83;3.47;;;;;;;16.27;100.00;100083.84;1451056;89;21377;-76
2023/07/21 02:48:50;;;;;;;5.90;2.73;;;;;;;16.24;100.00;100085.88;1451665;89;21436;-76
2023/07/21 02:51:16;;;;;;;5.30;2.20;;;;;;;16.20;100.00;100081.13;1462636;89;21311;-77
2023/07/21 02:53:42;;;;;;;3.87;2.53;;;;;;;16.18;100.00;100083.98;1449350;89;21571;-77
2023/07/21 02:56:09;;;;;;;4.93;2.67;;;;;;;16.18;100.00;100086.64;1447113;89;21879;-77
2023/07/21 02:58:35;;;;;;;3.93;2.87;;;;;;;16.20;100.00;100084.62;1454470;89;22278;-77
2023/07/21 03:01:03;;;;;;;5.77;2.60;;;;;;;16.24;100.00;100093.06;1465737;89;21391;-75
2023/07/21 03:03:32;;;;;;;2.57;2.10;;;;;;;16.28;100.00;100097.50;1459128;89;21362;-76
2023/07/21 03:05:59;;;;;;;6.37;2.57;;;;;;;16.29;100.00;100100.50;1451010;89;22257;-75
2023/07/21 03:08:30;;;;;;;6.13;3.57;;;;;;;16.31;100.00;100104.61;1454628;89;21473;-75
2023/07/21 03:10:56;;;;;;;3.37;2.58;;;;;;;16.34;100.00;100106.07;1454773;88;21466;-75
2023/07/21 03:13:24;;;;;;;6.37;2.37;;;;;;;16.37;100.00;100108.36;1469030;89;21488;-75
2023/07/21 03:19:51;;;;;;;8.13;3.00;;;;;;;16.36;100.00;100115.55;1465526;89;21553;-75
2023/07/21 03:22:17;;;;;;;4.13;2.40;;;;;;;16.32;100.00;100128.16;1473917;89;22590;-76
2023/07/21 03:24:43;;;;;;;9.50;3.70;;;;;;;16.31;100.00;100121.97;1465016;89;21437;-75
2023/07/21 03:27:12;;;;;;;4.93;2.60;;;;;;;16.33;100.00;100126.61;1467134;89;21259;-75
2023/07/21 03:29:37;;;;;;;10.27;3.00;;;;;;;16.32;100.00;100112.14;1437906;90;22870;-76
2023/07/21 03:32:04;;;;;;;4.23;2.23;;;;;;;16.30;100.00;100114.16;1428032;91;21399;-76
2023/07/21 03:34:30;;;;;;;4.77;2.83;;;;;;;16.29;100.00;100105.84;1465717;89;21893;-76
2023/07/21 03:36:56;;;;;;;6.20;2.57;;;;;;;16.27;100.00;100106.54;1468481;88;21554;-75
2023/07/21 03:39:23;;;;;;;5.63;3.10;;;;;;;16.24;100.00;100111.23;1471904;89;21377;-75
2023/07/21 03:41:49;;;;;;;6.10;3.63;;;;;;;16.20;100.00;100115.32;1476830;88;21428;-75
2023/07/21 03:44:16;;;;;;;5.80;2.37;;;;;;;16.23;100.00;100120.80;1463957;89;21370;-75
2023/07/21 03:46:42;;;;;;;7.10;2.93;;;;;;;16.27;100.00;100123.90;1465477;88;23031;-75
2023/07/21 03:49:11;;;;;;;5.03;2.30;;;;;;;16.35;100.00;100127.26;1468283;89;21363;-76
2023/07/21 03:51:39;;;;;;;9.37;2.97;;;;;;;16.41;100.00;100121.66;1442972;90;21443;-76
2023/07/21 03:54:04;;;;;;;7.17;3.17;;;;;;;16.45;100.00;100118.39;1410840;92;22389;-75
2023/07/21 03:56:30;;;;;;;3.50;2.23;;;;;;;16.47;100.00;100115.54;1435987;91;22386;-75
2023/07/21 03:58:58;;;;;;;3.83;2.30;;;;;;;16.51;100.00;100115.45;1457986;89;22457;-75
2023/07/21 04:01:24;;;;;;;9.40;4.00;;;;;;;16.53;100.00;100112.61;1468516;89;21415;-75
2023/07/21 04:03:51;;;;;;;7.03;2.40;;;;;;;16.56;100.00;100115.70;1468440;89;21637;-76
2023/07/21 04:06:23;;;;;;;5.43;2.40;;;;;;;16.59;100.00;100121.99;1471120;89;21362;-77
2023/07/21 04:08:45;;;;;;;8.37;3.00;;;;;;;16.65;100.00;100131.90;1466533;88;21560;-76
2023/07/21 04:11:11;;;;;;;9.83;3.63;;;;;;;16.70;100.00;100132.15;1456411;88;21473;-77
2023/07/21 04:13:38;;;;;;;5.47;3.00;;;;;;;16.77;100.00;100130.88;1467327;88;21370;-76
2023/07/21 04:16:05;;;;;;;4.70;3.20;;;;;;;16.84;100.00;100128.27;1472335;88;21681;-75
2023/07/21 04:18:31;;;;;;;4.67;2.93;;;;;;;16.95;100.00;100129.59;1463131;88;21340;-75
2023/07/21 04:20:57;;;;;;;6.40;3.23;;;;;;;16.95;100.00;100133.08;1470300;88;21494;-75
2023/07/21 04:23:24;;;;;;;5.50;3.13;;;;;;;16.97;100.00;100128.34;1462184;88;22361;-75
2023/07/21 04:25:50;;;;;;;7.67;3.03;;;;;;;17.01;100.00;100127.45;1448953;88;21598;-75
2023/07/21 04:28:16;;;;;;;4.77;3.10;;;;;;;17.04;100.00;100123.05;1471336;88;21333;-75
2023/07/21 04:30:43;;;;;;;4.53;2.63;;;;;;;17.07;100.00;100132.02;1472133;88;21303;-75
2023/07/21 04:33:09;;;;;;;3.73;2.53;;;;;;;17.10;100.00;100132.95;1469073;88;21510;-75
2023/07/21 04:35:35;;;;;;;11.77;2.87;;;;;;;17.17;100.00;100134.31;1473889;88;22330;-76
2023/07/21 04:38:02;;;;;;;4.57;3.07;;;;;;;17.28;100.00;100137.25;1472377;88;21533;-75
2023/07/21 04:40:28;;;;;;;7.37;3.60;;;;;;;17.39;100.00;100144.41;1454643;88;21436;-75
2023/07/21 04:42:54;;;;;;;10.37;3.17;;;;;;;17.48;100.00;100145.37;1476185;88;22365;-76
2023/07/21 04:45:20;;;;;;;3.57;2.57;;;;;;;17.57;100.00;100145.50;1473055;88;21361;-76
2023/07/21 04:47:49;;;;;;;9.20;3.20;;;;;;;17.64;100.00;100147.41;1471417;88;21287;-76
2023/07/21 04:50:14;;;;;;;6.87;2.80;;;;;;;17.72;100.00;100142.70;1470223;88;21472;-76
2023/07/21 04:52:40;;;;;;;8.97;3.17;;;;;;;17.82;100.00;100131.63;1472753;88;21517;-76
2023/07/21 04:55:08;;;;;;;4.10;2.90;;;;;;;17.94;100.00;100130.00;1478888;88;21404;-75
2023/07/21 04:57:38;;;;;;;5.45;3.12;;;;;;;18.00;100.00;100129.19;1471869;88;21480;-77
2023/07/21 05:00:11;;;;;;;9.53;2.72;;;;;;;18.09;100.00;100130.34;1470781;88;21547;-77
2023/07/21 05:02:34;;;;;;;9.45;3.33;;;;;;;18.21;100.00;100136.73;1468856;88;21432;-77
2023/07/21 05:05:01;;;;;;;8.65;2.80;;;;;;;18.28;100.00;100134.89;1468020;88;21573;-78
2023/07/21 05:07:27;;;;;;;8.35;3.67;;;;;;;18.34;100.00;100134.08;1467351;88;21429;-78
2023/07/21 05:09:55;;;;;;;5.97;3.05;;;;;;;18.41;100.00;100140.27;1474953;88;21391;-79
2023/07/21 05:12:25;;;;;;;8.85;3.47;;;;;;;18.46;100.00;100140.45;1476982;88;22213;-79
2023/07/21 05:14:52;;;;;;;2.83;2.42;;;;;;;18.56;100.00;100147.25;1464790;88;21435;-80
2023/07/21 05:17:18;;;;;;;30.57;4.12;;;;;;;18.67;100.00;100147.48;1475105;88;21613;-78
2023/07/21 05:19:44;;;;;;;6.85;2.87;;;;;;;18.77;100.00;100148.42;1472905;88;21370;-77
2023/07/21 05:22:13;;;;;;;8.33;3.15;;;;;;;18.89;100.00;100150.77;1473637;88;22410;-76
2023/07/21 05:24:40;;;;;;;4.60;3.02;;;;;;;19.00;100.00;100151.17;1479622;88;21339;-77
2023/07/21 05:27:07;;;;;;;4.60;3.17;;;;;;;19.11;100.00;100147.85;1473542;88;21413;-77
2023/07/21 05:29:34;;;;;;;11.35;2.95;;;;;;;19.19;100.00;100136.05;1477064;88;22271;-77
2023/07/21 05:32:05;;;;;;;11.28;3.17;;;;;;;19.29;99.94;100133.77;1470443;88;21451;-77
2023/07/21 05:34:32;;;;;;;9.45;3.10;;;;;;;19.42;100.00;100131.53;1479404;88;21361;-79
2023/07/21 05:36:59;;;;;;;7.65;2.45;;;;;;;19.56;100.00;100137.15;1475305;88;21347;-77
2023/07/21 05:39:30;;;;;;;8.15;2.33;;;;;;;19.65;99.50;100123.84;1472822;88;21384;-77
2023/07/21 05:41:58;;;;;;;4.22;2.85;;;;;;;19.70;97.62;100121.31;1397918;88;21332;-78
2023/07/21 05:44:26;;;;;;;3.52;2.90;;;;;;;19.75;97.57;100124.19;1558170;88;21355;-78
2023/07/21 05:46:53;;;;;;;8.25;2.90;;;;;;;19.84;97.73;100120.20;1403578;88;21474;-78
2023/07/21 05:49:19;;;;;;;11.20;3.40;;;;;;;19.93;96.26;100121.30;1397489;88;21326;-79
2023/07/21 05:51:46;;;;;;;5.37;2.55;;;;;;;19.97;95.70;100122.53;1387279;90;21259;-78
2023/07/21 05:54:12;;;;;;;8.03;2.95;;;;;;;20.01;94.33;100121.04;1398637;88;21318;-78
2023/07/21 05:56:39;;;;;;;4.35;3.02;;;;;;;20.09;95.46;100111.37;1404599;88;21281;-79
2023/07/21 05:59:06;;;;;;;10.93;2.95;;;;;;;20.23;96.61;100110.24;1397908;88;21230;-77
2023/07/21 06:01:34;;;;;;;3.92;2.65;;;;;;;20.42;97.06;100104.91;1401136;88;21393;-79
2023/07/21 06:04:00;;;;;;;4.92;2.75;;;;;;;20.58;96.30;100107.08;1462104;88;21398;-78
2023/07/21 06:06:28;;;;;;;6.90;2.85;;;;;;;20.74;96.17;100086.85;1445887;90;22220;-78
2023/07/21 06:08:54;;;;;;;4.37;2.33;;;;;;;20.87;96.06;100107.42;1425914;92;21442;-78
2023/07/21 06:11:20;;;;;;;8.08;2.30;;;;;;;21.08;95.16;100113.70;1444502;90;21405;-82
2023/07/21 06:13:46;;;;;;;7.37;2.50;;;;;;;21.18;92.66;100118.05;1427416;91;22478;-83
2023/07/21 06:16:13;;;;;;;3.80;2.55;;;;;;;21.29;93.05;100116.98;1435880;91;22464;-82
2023/07/21 06:18:39;;;;;;;4.42;2.65;;;;;;;21.42;93.28;100119.55;1436172;90;21577;-83
2023/07/21 06:21:05;;;;;;;17.07;3.50;;;;;;;21.49;92.42;100117.61;1436364;91;22352;-82
2023/07/21 06:23:31;;;;;;;6.83;2.47;;;;;;;21.65;92.78;100120.72;1441734;91;21442;-81
2023/07/21 06:25:57;;;;;;;10.82;2.55;;;;;;;21.79;92.69;100129.73;1435348;90;21399;-82
2023/07/21 06:28:23;;;;;;;5.72;2.40;;;;;;;21.90;89.71;100134.05;1435290;91;21502;-81
2023/07/21 06:30:50;;;;;;;3.25;2.40;;;;;;;21.96;89.00;100132.60;1440893;91;22463;-79
2023/07/21 06:33:16;;;;;;;5.40;2.27;;;;;;;22.06;89.26;100132.84;1432628;90;21406;-80
2023/07/21 06:35:42;;;;;;;6.42;2.00;;;;;;;22.07;87.14;100131.81;1438341;91;21495;-80
2023/07/21 06:38:08;;;;;;;4.45;2.45;;;;;;;22.12;86.02;100130.29;1438262;90;21348;-83
2023/07/21 06:40:34;;;;;;;3.35;1.98;;;;;;;22.24;86.85;100121.22;1432319;90;21585;-81
2023/07/21 06:43:00;;;;;;;5.75;2.62;;;;;;;22.41;87.56;100120.52;1433728;91;21421;-81
2023/07/21 06:45:27;;;;;;;8.58;3.50;;;;;;;22.61;87.40;100122.89;1415943;91;21399;-79
2023/07/21 06:47:53;;;;;;;6.50;1.80;;;;;;;22.83;87.16;100118.55;1438643;91;21525;-80
2023/07/21 06:50:19;;;;;;;3.33;2.12;;;;;;;23.03;84.92;100122.79;1406971;91;22484;-81
2023/07/21 06:52:46;;;;;;;6.22;2.30;;;;;;;23.24;84.65;100123.50;1433738;91;21608;-80
2023/07/21 06:55:12;;;;;;;5.53;2.35;;;;;;;23.42;83.93;100123.88;1432901;91;21405;-80
2023/07/21 06:57:41;;;;;;;4.75;1.92;;;;;;;23.54;83.05;100118.44;1433200;91;21914;-80
2023/07/21 07:00:12;;;;;;;3.52;1.87;;;;;;;23.50;82.42;100128.88;1435888;91;22279;-80
2023/07/21 07:02:37;;;;;;;3.40;2.22;;;;;;;23.57;82.71;100129.58;1450104;91;21621;-80
2023/07/21 07:05:04;;;;;;;8.88;2.02;;;;;;;23.67;82.65;100122.19;1430048;91;21392;-80
2023/07/21 07:07:31;;;;;;;7.08;2.10;;;;;;;23.81;83.48;100120.86;1439283;91;21318;-79
2023/07/21 07:09:57;;;;;;;5.92;1.72;;;;;;;23.91;82.79;100115.35;1440552;91;21540;-79
2023/07/21 07:12:23;;;;;;;4.42;1.90;;;;;;;23.96;80.17;100112.75;1441681;88;21369;-80
2023/07/21 07:14:50;;;;;;;2.50;1.95;;;;;;;24.07;81.59;100117.27;1472493;89;21546;-80
2023/07/21 07:17:16;;;;;;;3.87;2.40;;;;;;;24.13;81.32;100116.29;1462514;89;21385;-80
2023/07/21 07:19:43;;;;;;;2.20;1.87;;;;;;;24.11;81.41;100110.33;1466113;89;22323;-79
2023/07/21 07:22:09;;;;;;;5.17;1.80;;;;;;;24.10;81.18;100103.27;1471002;89;22489;-80
2023/07/21 07:24:35;;;;;;;5.60;1.80;;;;;;;24.03;80.86;100099.91;1476257;88;21437;-78
2023/07/21 07:27:02;;;;;;;3.62;1.92;;;;;;;24.05;81.30;100097.26;1464884;89;21486;-79
2023/07/21 07:29:28;;;;;;;2.58;1.67;;;;;;;24.02;78.88;100095.55;1470598;89;21863;-80
2023/07/21 07:31:55;;;;;;;5.80;2.02;;;;;;;24.01;80.62;100089.87;1473730;89;21450;-79
2023/07/21 07:34:22;;;;;;;5.55;1.70;;;;;;;23.99;80.59;100100.09;1465772;89;21472;-81
2023/07/21 07:36:48;;;;;;;7.90;2.10;;;;;;;24.06;81.28;100099.42;1462405;89;21506;-81
2023/07/21 07:39:15;;;;;;;10.23;2.02;;;;;;;24.13;80.59;100097.36;1416251;89;21422;-80
2023/07/21 07:41:44;;;;;;;4.70;2.37;;;;;;;24.15;81.08;100098.48;1551397;89;21179;-80
2023/07/21 07:44:11;;;;;;;7.42;3.08;;;;;;;24.18;80.91;100104.22;1394896;89;21496;-80
2023/07/21 07:46:37;;;;;;;5.60;2.15;;;;;;;24.16;79.92;100104.98;1391704;89;21267;-78
2023/07/21 07:49:04;;;;;;;11.50;3.70;;;;;;;24.18;80.57;100110.97;1392250;89;21275;-79
2023/07/21 07:51:30;;;;;;;18.80;6.83;;;;;;;24.31;80.45;100110.66;1405409;89;21369;-79
2023/07/21 07:53:57;;;;;;;4.35;2.12;;;;;;;24.43;79.91;100117.37;1467899;89;21384;-80
2023/07/21 07:56:24;;;;;;;5.08;2.30;;;;;;;24.51;80.50;100114.25;1464643;89;22710;-80
2023/07/21 07:58:50;;;;;;;4.08;2.10;;;;;;;24.58;80.25;100122.19;1467754;89;21370;-80
2023/07/21 08:01:17;;;;;;;4.65;2.20;;;;;;;24.55;78.07;100107.81;1464319;89;21546;-80
2023/07/21 08:03:43;;;;;;;4.45;1.95;;;;;;;24.56;78.42;100109.44;1447203;89;21518;-80
2023/07/21 08:06:11;;;;;;;5.20;1.92;;;;;;;24.59;78.74;100106.23;1461839;89;21617;-79
2023/07/21 08:08:38;;;;;;;4.90;2.00;;;;;;;24.61;78.43;100110.88;1463821;89;21377;-81
2023/07/21 08:11:06;;;;;;;8.10;1.87;;;;;;;24.64;78.78;100107.66;1466003;89;21481;-79
2023/07/21 08:13:32;;;;;;;10.80;3.20;;;;;;;24.66;77.88;100115.55;1486197;88;21488;-80
2023/07/21 08:15:59;;;;;;;7.80;2.77;;;;;;;24.67;77.89;100114.47;1371180;90;22165;-80
2023/07/21 08:18:25;;;;;;;5.03;2.12;;;;;;;24.72;78.44;100115.91;1359662;91;21342;-80
2023/07/21 08:20:52;;;;;;;6.42;2.47;;;;;;;24.73;79.11;100117.53;1359827;90;21260;-80
2023/07/21 08:23:24;;;;;;;6.40;2.40;;;;;;;24.72;78.35;100114.02;1365465;91;22220;-79
2023/07/21 08:25:50;;;;;;;5.53;2.58;;;;;;;24.73;78.21;100118.34;1392539;89;21260;-80
2023/07/21 08:28:16;;;;;;;3.67;2.35;;;;;;;24.73;77.26;100112.94;1401799;88;22283;-80
2023/07/21 08:30:43;;;;;;;5.65;2.37;;;;;;;24.65;77.27;100116.06;1415714;88;21384;-79
2023/07/21 08:33:09;;;;;;;3.17;2.62;;;;;;;24.72;77.81;100115.91;1468124;89;21429;-79
2023/07/21 08:35:35;;;;;;;3.40;1.90;;;;;;;24.75;77.47;100116.22;1472592;88;21503;-79
2023/07/21 08:38:02;;;;;;;2.92;2.15;;;;;;;24.81;78.15;100117.11;1463066;89;21407;-77
2023/07/21 08:40:30;;;;;;;7.17;2.40;;;;;;;24.78;77.98;100115.45;1472326;89;21362;-80
2023/07/21 08:42:57;;;;;;;3.45;1.90;;;;;;;24.83;78.63;100120.40;1448758;89;21398;-79
2023/07/21 08:45:26;;;;;;;7.28;1.95;;;;;;;24.87;76.95;100115.30;1471071;89;21451;-80
2023/07/21 08:47:52;;;;;;;4.62;2.10;;;;;;;25.04;77.93;100115.27;1400253;92;21465;-81
2023/07/21 08:50:19;;;;;;;5.15;3.00;;;;;;;25.36;76.63;100112.71;1429133;91;22468;-80
2023/07/21 08:52:46;;;;;;;8.90;2.30;;;;;;;25.66;78.03;100110.35;1427701;91;21488;-79
2023/07/21 08:55:12;;;;;;;2.85;2.22;;;;;;;25.94;77.05;100113.89;1431557;91;21444;-80
2023/07/21 08:57:39;;;;;;;4.60;2.60;;;;;;;26.25;76.80;100116.88;1433200;90;22339;-80
2023/07/21 09:00:10;;;;;;;3.15;2.00;;;;;;;26.48;75.65;100114.34;1429694;90;21362;-81
2023/07/21 09:02:47;;;;;;;3.30;2.15;;;;;;;26.71;74.77;100108.56;1355952;92;22351;-80
2023/07/21 09:05:18;;;;;;;10.18;2.17;;;;;;;27.00;74.69;100107.63;1545406;88;21186;-81
2023/07/21 09:07:47;;;;;;;3.00;1.98;;;;;;;27.23;72.97;100113.74;1552021;89;21208;-81
2023/07/21 09:10:16;;;;;;;;;;;;;;;27.43;71.20;100108.37;1393886;89;21265;-81
2023/07/21 09:12:43;;;;;;;2.83;2.02;;;;;;;27.50;70.23;100104.59;1553484;88;20797;-80
2023/07/21 09:15:12;;;;;;;9.78;2.87;;;;;;;27.48;70.18;100116.26;1550666;88;22205;-80
2023/07/21 09:21:38;;;;;;;7.93;2.47;;;;;;;27.33;70.91;100123.27;1551598;89;21201;-81
2023/07/21 09:24:13;;;;;;;8.83;2.30;;;;;;;27.44;70.60;100118.70;1401669;88;21526;-79
2023/07/21 09:26:40;;;;;;;6.22;3.00;;;;;;;27.52;69.87;100116.02;1390786;89;21319;-80
2023/07/21 09:29:17;;;;;;;5.20;2.60;;;;;;;27.57;69.39;100110.60;1392809;89;21460;-80
2023/07/21 09:31:44;;;;;;;6.83;2.67;;;;;;;27.63;69.88;100111.69;1525983;90;21200;-80
2023/07/21 09:34:10;;;;;;;3.87;1.92;;;;;;;27.72;70.65;100113.34;1361906;91;21504;-81
2023/07/21 09:36:38;;;;;;;5.97;2.50;;;;;;;27.82;69.68;100108.48;1392273;88;21289;-80
2023/07/21 09:39:04;;;;;;;5.45;2.45;;;;;;;27.99;69.02;100110.96;1542183;88;21362;-81
2023/07/21 09:41:34;;;;;;;3.85;1.90;;;;;;;28.18;67.23;100115.33;1392418;89;21393;-80
2023/07/21 09:44:01;;;;;;;4.47;2.00;;;;;;;28.17;66.79;100103.64;1394952;89;21318;-80
2023/07/21 09:46:27;;;;;;;3.40;2.35;;;;;;;28.23;66.01;100096.30;1364942;91;21274;-80
2023/07/21 09:48:56;;;;;;;4.08;2.45;;;;;;;28.33;64.57;100103.88;1392812;89;22243;-80
2023/07/21 09:51:26;;;;;;;8.25;1.80;;;;;;;28.46;63.65;100097.67;1388970;89;22096;-81
2023/07/21 09:53:53;;;;;;;6.40;2.08;;;;;;;28.55;63.76;100100.09;1519774;90;21333;-80
2023/07/21 09:56:21;;;;;;;3.75;2.27;;;;;;;28.45;62.15;100101.45;1363623;91;21304;-81
2023/07/21 09:59:00;;;;;;;6.22;2.40;;;;;;;28.43;61.83;100098.22;1358058;91;21320;-80
2023/07/21 10:01:28;;;;;;;;;;;;;;;28.57;62.64;100093.84;1523259;88;21437;-80
2023/07/21 10:03:57;;;;;;;2.20;1.92;;;;;;;28.72;61.63;100091.08;1390444;89;20232;-80
2023/07/21 10:06:25;;;;;;;3.40;1.90;;;;;;;28.90;62.75;100089.66;1396185;89;21471;-81
2023/07/21 10:08:52;;;;;;;7.15;2.10;;;;;;;29.02;62.24;100087.98;1551342;89;21164;-80
2023/07/21 10:11:19;;;;;;;4.10;2.22;;;;;;;29.08;61.62;100100.52;1390918;89;21274;-80
2023/07/21 10:13:48;;;;;;;4.42;2.00;;;;;;;29.12;61.25;100097.52;1403712;88;21355;-81
2023/07/21 10:16:15;;;;;;;4.33;2.05;;;;;;;29.11;60.85;100090.41;1551323;89;22141;-81
2023/07/21 10:19:11;;;;;;;4.83;2.40;;;;;;;29.05;61.05;100093.45;1401357;88;21547;-81
2023/07/21 10:21:52;;;;;;;16.10;2.75;;;;;;;28.95;60.68;100093.73;1368926;90;21326;-83
2023/07/21 10:24:28;;;;;;;7.90;2.00;;;;;;;29.01;59.92;100094.53;1508269;91;21456;-82
2023/07/21 10:26:56;;;;;;;3.33;2.05;;;;;;;29.04;59.61;100094.00;1511205;91;21349;-80
2023/07/21 10:29:22;;;;;;;6.15;2.25;;;;;;;29.09;53.47;100091.27;1357585;90;21223;-81
2023/07/21 10:31:55;;;;;;;2.87;1.98;;;;;;;29.16;52.72;100092.31;1365701;91;21290;-80
2023/07/21 10:34:37;;;;;;;4.03;2.00;;;;;;;29.28;51.94;100091.98;1355906;90;21466;-80
2023/07/21 10:37:04;;;;;;;4.80;2.52;;;;;;;29.44;44.10;100086.18;1381931;91;21363;-81
2023/07/21 10:39:37;;;;;;;6.03;2.95;;;;;;;29.70;44.35;100081.16;1358398;91;21282;-81
2023/07/21 10:42:06;;;;;;;3.65;2.80;;;;;;;29.79;43.27;100078.90;1359086;90;21289;-80
2023/07/21 10:44:38;;;;;;;6.58;2.20;;;;;;;29.91;43.36;100087.53;1392085;88;22117;-81
2023/07/21 10:47:18;;;;;;;3.90;2.08;;;;;;;30.01;42.51;100086.66;1551966;89;21163;-81
2023/07/21 10:49:45;;;;;;;;;;;;;;;30.29;42.31;100081.52;1433076;89;21579;-81
2023/07/21 10:52:12;;;;;;;6.20;2.40;;;;;;;30.55;41.50;100071.16;1462089;89;20782;-81
2023/07/21 10:54:39;;;;;;;6.33;2.37;;;;;;;30.80;41.80;100069.55;1464566;89;21317;-83
2023/07/21 10:57:08;;;;;;;7.00;2.30;;;;;;;30.89;41.07;100058.79;1470902;89;21550;-81
2023/07/21 10:59:36;;;;;;;10.98;2.22;;;;;;;30.85;39.80;100055.58;1389103;89;21325;-81
2023/07/21 11:02:06;;;;;;;4.20;1.80;;;;;;;30.63;39.96;100049.23;1426404;89;22559;-81
2023/07/21 11:04:33;;;;;;;4.35;2.00;;;;;;;30.28;38.37;100045.23;1388036;89;21251;-81
2023/07/21 11:07:00;;;;;;;8.08;2.37;;;;;;;30.13;40.36;100047.52;1398347;89;21289;-80
2023/07/21 11:09:33;;;;;;;3.70;2.27;;;;;;;30.05;40.91;100045.41;1390874;89;21407;-81
2023/07/21 11:11:58;;;;;;;2.70;2.25;;;;;;;29.96;40.86;100043.59;1371686;90;22251;-81
2023/07/21 11:14:27;;;;;;;7.60;2.10;;;;;;;29.85;40.85;100046.39;1458046;91;21370;-80
2023/07/21 11:17:00;;;;;;;8.63;2.60;;;;;;;29.57;40.44;100048.47;1356444;91;21460;-82
2023/07/21 11:19:33;;;;;;;3.22;2.12;;;;;;;29.46;40.57;100046.36;1505047;90;21538;-80
2023/07/21 11:22:00;;;;;;;3.25;2.00;;;;;;;29.41;41.12;100047.77;1554229;88;22132;-80
2023/07/21 11:24:29;;;;;;;4.92;2.10;;;;;;;29.36;41.68;100040.98;1469783;88;21627;-80
2023/07/21 11:27:03;;;;;;;7.65;1.95;;;;;;;29.29;41.97;100041.83;1392057;88;21259;-81
2023/07/21 11:29:30;;;;;;;6.30;2.42;;;;;;;29.35;40.75;100036.64;1410478;88;21405;-81
2023/07/21 11:31:56;;;;;;;4.08;2.22;;;;;;;29.20;41.88;100032.91;1469480;88;21399;-80
2023/07/21 11:34:25;;;;;;;7.60;2.12;;;;;;;29.16;42.02;100029.09;1468023;88;22581;-80
2023/07/21 11:36:59;;;;;;;3.62;2.00;;;;;;;29.06;41.61;100033.77;1392327;88;22086;-81